createdAt,value
2023-03-06T00:00:22.808Z,4.9
2023-03-06T00:05:22.817Z,4.8
2023-03-06T00:10:22.821Z,6.9
2023-03-06T00:15:22.816Z,5.3
2023-03-06T00:20:22.815Z,4.3
2023-03-06T00:25:22.809Z,4.5
2023-03-06T00:30:22.818Z,6.0
2023-03-06T00:35:22.903Z,7.3
2023-03-06T00:40:22.914Z,9.3
2023-03-06T00:45:23.043Z,6.4
2023-03-06T00:50:22.823Z,6.4
2023-03-06T00:55:22.818Z,8.1
2023-03-06T01:00:22.827Z,7.1
2023-03-06T01:05:22.832Z,8.8
2023-03-06T01:10:22.818Z,7.7
2023-03-06T01:15:22.828Z,8.6
2023-03-06T01:20:22.850Z,7.9
2023-03-06T01:25:22.816Z,7.6
2023-03-06T01:30:22.830Z,7.5
2023-03-06T01:35:22.859Z,8.2
2023-03-06T01:40:22.826Z,7.5
2023-03-06T01:45:22.836Z,7.8
2023-03-06T01:50:22.841Z,9.5
2023-03-06T01:55:22.838Z,4.7
2023-03-06T02:00:22.834Z,4.8
2023-03-06T02:05:22.981Z,4.4
2023-03-06T02:10:22.837Z,6.5
2023-03-06T02:15:22.842Z,6.8
2023-03-06T02:20:22.850Z,6.8
2023-03-06T02:25:22.846Z,6.5
2023-03-06T02:30:22.847Z,7.2
2023-03-06T02:35:22.972Z,8.4
2023-03-06T02:40:22.847Z,7.6
2023-03-06T02:45:22.846Z,8.9
2023-03-06T02:50:22.751Z,8.5
2023-03-06T02:55:22.852Z,8.1
2023-03-06T03:00:22.861Z,7.7
2023-03-06T03:05:22.863Z,9.7
2023-03-06T03:10:22.755Z,10.0
2023-03-06T03:15:22.829Z,9.3
2023-03-06T03:20:22.756Z,8.9
2023-03-06T03:25:22.765Z,9.1
2023-03-06T03:30:22.792Z,9.0
2023-03-06T03:35:22.800Z,8.3
2023-03-06T03:40:22.778Z,11.2
2023-03-06T03:45:22.763Z,12.1
2023-03-06T03:50:22.784Z,8.9
2023-03-06T03:55:22.781Z,9.5
2023-03-06T04:00:22.759Z,11.6
2023-03-06T04:05:22.793Z,9.9
2023-03-06T04:10:22.774Z,9.2
2023-03-06T04:15:22.775Z,10.4
2023-03-06T04:25:22.769Z,13.5
2023-03-06T04:30:22.778Z,10.5
2023-03-06T04:35:22.837Z,12.8
2023-03-06T04:40:22.777Z,11.6
2023-03-06T04:55:22.779Z,10.6
2023-03-06T05:00:22.907Z,12.0
2023-03-06T05:05:22.797Z,10.4
2023-03-06T05:10:22.786Z,12.6
2023-03-06T05:15:22.781Z,11.0
2023-03-06T05:20:22.790Z,9.2
2023-03-06T05:25:22.790Z,11.4
2023-03-06T05:30:22.786Z,12.1
2023-03-06T05:35:22.892Z,10.0
2023-03-06T05:40:22.795Z,13.1
2023-03-06T05:45:36.198Z,11.6
2023-03-06T05:50:22.806Z,11.6
2023-03-06T05:55:22.797Z,11.7
2023-03-06T06:00:22.804Z,13.5
2023-03-06T06:05:22.809Z,16.1
2023-03-06T06:10:22.800Z,13.7
2023-03-06T06:15:22.795Z,13.5
2023-03-06T06:25:22.805Z,14.6
2023-03-06T06:30:22.820Z,15.7
2023-03-06T06:35:22.849Z,15.0
2023-03-06T06:40:22.804Z,17.8
2023-03-06T06:50:22.827Z,17.3
2023-03-06T06:55:22.805Z,18.0
2023-03-06T07:00:22.815Z,17.9
2023-03-06T07:05:22.915Z,18.6
2023-03-06T07:10:22.911Z,18.5
2023-03-06T07:15:22.911Z,18.0
2023-03-06T07:20:22.819Z,19.5
2023-03-06T07:25:23.060Z,19.1
2023-03-06T07:30:22.934Z,18.8
2023-03-06T07:35:22.929Z,18.2
2023-03-06T07:40:22.943Z,19.4
2023-03-06T07:45:22.881Z,17.7
2023-03-06T07:50:22.950Z,16.6
2023-03-06T07:55:22.938Z,18.6
2023-03-06T08:00:23.034Z,18.9
2023-03-06T08:10:22.953Z,16.9
2023-03-06T08:15:22.937Z,17.3
2023-03-06T08:20:22.943Z,17.7
2023-03-06T08:25:22.945Z,15.9
2023-03-06T08:35:23.132Z,17.5
2023-03-06T08:40:22.960Z,16.2
2023-03-06T08:45:23.024Z,16.8
2023-03-06T08:50:22.973Z,14.4
2023-03-06T08:55:22.975Z,14.4
2023-03-06T09:00:23.153Z,13.8
2023-03-06T09:05:22.957Z,11.2
2023-03-06T09:10:23.072Z,11.7
2023-03-06T09:15:23.065Z,10.7
2023-03-06T09:20:22.972Z,9.1
2023-03-06T09:25:22.970Z,11.0
2023-03-06T09:30:23.053Z,11.7
2023-03-06T09:35:23.071Z,6.8
2023-03-06T09:40:22.998Z,4.7
2023-03-06T09:45:22.981Z,3.6
2023-03-06T09:50:23.053Z,5.5
2023-03-06T09:55:22.997Z,4.7
2023-03-06T10:00:23.020Z,4.3
2023-03-06T10:05:22.980Z,3.8
2023-03-06T10:10:23.042Z,9.1
2023-03-06T10:15:22.981Z,2.3
2023-03-06T10:20:23.090Z,3.0
2023-03-06T10:25:22.990Z,2.7
2023-03-06T10:30:23.062Z,1.5
2023-03-06T10:35:23.058Z,1.7
2023-03-06T10:40:23.014Z,1.5
2023-03-06T10:45:23.004Z,2.0
2023-03-06T10:50:23.004Z,2.1
2023-03-06T10:55:23.009Z,2.6
2023-03-06T11:00:23.010Z,2.7
2023-03-06T11:05:23.008Z,2.5
2023-03-06T11:10:23.010Z,4.9
2023-03-06T11:15:23.027Z,2.2
2023-03-06T11:20:23.016Z,3.5
2023-03-06T11:25:23.153Z,3.7
2023-03-06T11:30:23.017Z,5.5
2023-03-06T11:35:23.093Z,5.9
2023-03-06T11:40:23.017Z,3.3
2023-03-06T11:45:23.019Z,4.9
2023-03-06T11:50:23.044Z,2.6
2023-03-06T11:55:23.017Z,3.4
2023-03-06T12:00:23.026Z,2.8
2023-03-06T12:05:23.126Z,2.0
2023-03-06T12:10:23.029Z,2.8
2023-03-06T12:15:23.040Z,4.4
2023-03-06T12:20:23.035Z,4.6
2023-03-06T12:25:23.065Z,4.3
2023-03-06T12:40:23.044Z,4.0
2023-03-06T12:45:23.042Z,4.8
2023-03-06T12:50:23.051Z,4.8
2023-03-06T12:55:25.737Z,5.0
2023-03-06T13:00:23.054Z,5.2
2023-03-06T13:05:23.053Z,6.9
2023-03-06T13:10:23.067Z,7.4
2023-03-06T13:15:23.063Z,8.3
2023-03-06T13:20:23.064Z,8.8
2023-03-06T13:25:23.082Z,8.7
2023-03-06T13:30:23.063Z,8.4
2023-03-06T13:35:23.057Z,9.9
2023-03-06T13:40:23.063Z,8.3
2023-03-06T13:45:23.065Z,9.4
2023-03-06T13:50:23.060Z,10.4
2023-03-06T13:55:23.067Z,8.0
2023-03-06T14:00:23.059Z,10.7
2023-03-06T14:05:23.075Z,9.3
2023-03-06T14:10:23.077Z,9.3
2023-03-06T14:15:23.083Z,8.6
2023-03-06T14:20:23.067Z,11.7
2023-03-06T14:25:23.095Z,10.5
2023-03-06T14:30:25.210Z,10.4
2023-03-06T14:35:23.170Z,9.7
2023-03-06T14:40:23.075Z,8.4
2023-03-06T14:45:23.072Z,7.7
2023-03-06T14:50:23.132Z,7.9
2023-03-06T14:55:23.087Z,8.2
2023-03-06T15:00:23.118Z,8.3
2023-03-06T15:05:23.094Z,9.9
2023-03-06T15:10:23.083Z,11.6
2023-03-06T15:15:23.091Z,10.2
2023-03-06T15:20:23.098Z,9.0
2023-03-06T15:25:23.093Z,11.9
2023-03-06T15:30:23.083Z,13.6
2023-03-06T15:35:23.131Z,12.8
2023-03-06T15:40:23.098Z,9.5
2023-03-06T15:45:23.126Z,9.6
2023-03-06T15:50:23.098Z,12.3
2023-03-06T15:55:23.119Z,20.8
2023-03-06T16:00:27.556Z,15.6
2023-03-06T16:05:23.126Z,16.4
2023-03-06T16:10:23.105Z,17.3
2023-03-06T16:15:23.101Z,19.7
2023-03-06T16:20:23.100Z,19.8
2023-03-06T16:25:23.104Z,20.1
2023-03-06T16:30:23.100Z,19.6
2023-03-06T16:35:23.126Z,22.3
2023-03-06T16:40:23.104Z,22.4
2023-03-06T16:45:23.106Z,22.4
2023-03-06T16:50:23.104Z,20.6
2023-03-06T16:55:23.113Z,23.3
2023-03-06T17:00:23.120Z,22.5
2023-03-06T17:05:23.116Z,24.8
2023-03-06T17:10:23.121Z,22.8
2023-03-06T17:15:23.117Z,24.8
2023-03-06T17:20:23.120Z,22.9
2023-03-06T17:25:23.125Z,23.4
2023-03-06T17:30:23.123Z,23.6
2023-03-06T17:35:23.183Z,25.4
2023-03-06T17:40:23.127Z,23.0
2023-03-06T17:45:23.133Z,23.3
2023-03-06T17:55:23.133Z,26.8
2023-03-06T18:00:23.135Z,26.1
2023-03-06T18:05:23.129Z,27.5
2023-03-06T18:10:23.131Z,26.9
2023-03-06T18:15:23.165Z,30.0
2023-03-06T18:20:23.161Z,29.1
2023-03-06T18:25:23.150Z,28.2
2023-03-06T18:30:23.137Z,27.6
2023-03-06T18:35:23.199Z,28.6
2023-03-06T18:40:24.840Z,26.5
2023-03-06T18:45:23.135Z,27.2
2023-03-06T18:50:23.146Z,26.4
2023-03-06T18:55:23.172Z,25.5
2023-03-06T19:00:23.161Z,25.9
2023-03-06T19:05:23.143Z,25.2
2023-03-06T19:10:23.156Z,26.2
2023-03-06T19:15:23.158Z,26.3
2023-03-06T19:20:23.170Z,21.8
2023-03-06T19:25:23.158Z,23.6
2023-03-06T19:30:23.158Z,26.9
2023-03-06T19:35:23.192Z,23.8
2023-03-06T19:40:23.162Z,24.8
2023-03-06T19:45:23.165Z,21.8
2023-03-06T19:50:23.180Z,21.6
2023-03-06T19:55:23.173Z,22.0
2023-03-06T20:00:23.173Z,20.4
2023-03-06T20:05:23.173Z,21.3
2023-03-06T20:10:23.214Z,20.5
2023-03-06T20:15:23.176Z,20.8
2023-03-06T20:20:23.188Z,22.1
2023-03-06T20:25:23.197Z,21.8
2023-03-06T20:30:23.171Z,21.1
2023-03-06T20:35:23.165Z,22.7
2023-03-06T20:40:23.199Z,21.5
2023-03-06T20:45:23.177Z,24.2
2023-03-06T20:50:23.193Z,22.0
2023-03-06T20:55:23.188Z,24.7
2023-03-06T21:00:23.175Z,24.8
2023-03-06T21:05:23.189Z,22.3
2023-03-06T21:10:23.183Z,24.2
2023-03-06T21:15:23.190Z,25.7
2023-03-06T21:20:23.196Z,24.4
2023-03-06T21:25:23.198Z,22.2
2023-03-06T21:30:23.300Z,21.1
2023-03-06T21:35:23.307Z,22.1
2023-03-06T21:40:23.193Z,21.5
2023-03-06T21:45:23.199Z,22.3
2023-03-06T21:50:23.199Z,22.6
2023-03-06T21:55:23.207Z,25.8
2023-03-06T22:00:23.221Z,23.6
2023-03-06T22:05:23.536Z,23.1
2023-03-06T22:10:23.206Z,21.0
2023-03-06T22:15:23.306Z,18.8
2023-03-06T22:20:23.207Z,21.2
2023-03-06T22:25:23.212Z,18.3
2023-03-06T22:35:23.230Z,18.4
2023-03-06T22:40:23.207Z,17.1
2023-03-06T22:45:23.202Z,13.4
2023-03-06T22:50:23.228Z,14.6
2023-03-06T22:55:23.215Z,15.4
2023-03-06T23:00:23.213Z,14.3
2023-03-06T23:05:23.245Z,10.8
2023-03-06T23:10:23.221Z,11.3
2023-03-06T23:15:23.224Z,10.1
2023-03-06T23:20:23.226Z,9.9
2023-03-06T23:25:23.225Z,9.0
2023-03-06T23:30:23.228Z,8.9
2023-03-06T23:35:23.253Z,10.7
2023-03-06T23:40:23.231Z,9.0
2023-03-06T23:45:23.240Z,10.2
2023-03-06T23:50:23.236Z,9.7
2023-03-06T23:55:23.244Z,8.3
